Time;durP1;ratioP1;P1;durP2;ratioP2;P2;SDS_P1;SDS_P2;PMS_P1;PMS_P2;Temp;Humidity;BMP_temperature;BMP_pressure;BME280_temperature;BME280_humidity;BME280_pressure;Samples;Min_cycle;Max_cycle;Signal;HPM_P1;HPM_P2
2022/04/23 00:01:52;;;;;;;4.03;1.92;;;;;;;14.52;46.73;93667.28;4159012;28;20153;-54
2022/04/23 00:03:54;;;;;;;3.42;1.95;;;;;;;14.61;46.50;93660.78;4158867;28;20139;-56
2022/04/23 00:05:55;;;;;;;2.90;1.77;;;;;;;14.68;46.76;93661.56;4158863;28;20065;-56
2022/04/23 00:07:57;;;;;;;8.20;1.85;;;;;;;14.55;45.86;93659.00;4157470;28;20524;-56
2022/04/23 00:09:59;;;;;;;8.30;1.88;;;;;;;14.57;45.48;93682.50;4158529;28;20110;-57
2022/04/23 00:12:01;;;;;;;8.25;1.80;;;;;;;14.66;45.99;93663.59;4158910;28;20130;-58
2022/04/23 00:14:04;;;;;;;4.53;1.90;;;;;;;14.77;46.14;93643.69;4158470;28;20438;-59
2022/04/23 00:16:06;;;;;;;3.93;1.63;;;;;;;14.81;44.96;93667.81;4158546;28;20226;-58
2022/04/23 00:18:08;;;;;;;4.82;1.95;;;;;;;14.94;44.70;93651.91;4157833;28;20050;-56
2022/04/23 00:20:12;;;;;;;3.67;1.83;;;;;;;14.88;44.81;93655.38;4158243;28;20049;-58
2022/04/23 00:22:17;;;;;;;4.38;1.98;;;;;;;14.79;45.34;93678.56;4143064;28;20491;-57
2022/04/23 00:24:19;;;;;;;5.57;1.95;;;;;;;14.76;45.80;93672.91;4141124;28;20573;-55
2022/04/23 00:26:21;;;;;;;5.68;2.28;;;;;;;14.47;46.36;93667.09;4144418;28;20046;-57
2022/04/23 00:28:23;;;;;;;3.58;1.60;;;;;;;14.29;46.34;93660.66;4157856;28;20053;-58
2022/04/23 00:30:24;;;;;;;7.93;2.30;;;;;;;14.24;46.71;93660.47;4158792;28;20402;-58
2022/04/23 00:32:26;;;;;;;3.90;1.52;;;;;;;14.28;46.86;93666.97;4158626;28;20057;-57
2022/04/23 00:34:28;;;;;;;8.20;2.08;;;;;;;14.28;46.85;93666.97;4158475;28;20111;-55
2022/04/23 00:36:30;;;;;;;5.00;2.00;;;;;;;14.39;47.06;93672.59;4158207;28;20146;-57
2022/04/23 00:38:36;;;;;;;5.35;1.90;;;;;;;14.46;46.83;93681.28;4162818;28;20118;-55
2022/04/23 00:40:40;;;;;;;3.83;2.00;;;;;;;14.50;47.20;93659.59;4158312;28;20113;-56
2022/04/23 00:42:51;;;;;;;5.07;1.88;;;;;;;14.45;46.76;93648.03;4158525;28;20119;-55
2022/04/23 00:44:53;;;;;;;4.30;1.98;;;;;;;14.17;47.05;93662.31;4158508;28;20421;-55
2022/04/23 00:46:55;;;;;;;5.20;1.80;;;;;;;14.06;47.59;93668.22;4158423;28;20511;-54
2022/04/23 00:48:58;;;;;;;5.22;1.88;;;;;;;14.08;47.99;93667.00;4152564;28;20085;-55
2022/04/23 00:51:01;;;;;;;5.32;1.85;;;;;;;14.09;48.20;93655.44;4158707;28;20152;-54
2022/04/23 00:53:03;;;;;;;2.57;1.70;;;;;;;13.97;47.25;93659.72;4155788;28;20060;-56
2022/04/23 00:55:06;;;;;;;2.20;1.42;;;;;;;14.04;47.30;93668.41;4158444;28;20057;-55
2022/04/23 00:57:09;;;;;;;3.42;1.73;;;;;;;14.00;47.55;93661.94;4158354;28;20119;-60
2022/04/23 00:59:12;;;;;;;3.83;2.15;;;;;;;13.95;47.94;93680.19;4158513;28;20065;-59
2022/04/23 01:01:18;;;;;;;4.63;2.05;;;;;;;13.96;47.46;93688.88;4158442;28;20075;-60
2022/04/23 01:03:22;;;;;;;5.50;2.00;;;;;;;13.90;47.70;93670.25;4158357;28;20168;-61
2022/04/23 01:05:24;;;;;;;5.57;2.03;;;;;;;14.02;47.99;93683.59;4158494;28;20395;-60
2022/04/23 01:07:26;;;;;;;4.93;1.83;;;;;;;14.07;47.74;93675.13;4158588;28;20064;-56
2022/04/23 01:09:28;;;;;;;4.45;2.38;;;;;;;14.16;47.52;93673.06;4156918;28;20119;-57
2022/04/23 01:11:29;;;;;;;5.65;1.73;;;;;;;14.33;46.97;93690.84;4158416;28;20057;-57
2022/04/23 01:13:32;;;;;;;8.10;1.92;;;;;;;14.50;46.87;93674.59;4158186;28;20525;-57
2022/04/23 01:15:33;;;;;;;3.05;1.50;;;;;;;14.63;46.33;93677.22;4158426;28;20556;-56
2022/04/23 01:17:36;;;;;;;4.53;1.98;;;;;;;14.71;46.04;93676.16;4158256;28;20050;-57
2022/04/23 01:19:38;;;;;;;3.78;1.90;;;;;;;14.74;45.87;93679.19;4158042;28;20103;-55
2022/04/23 01:21:40;;;;;;;6.78;2.28;;;;;;;14.77;45.69;93680.59;4158347;28;20557;-58
2022/04/23 01:23:42;;;;;;;6.40;1.92;;;;;;;14.80;45.85;93674.91;4157009;28;20467;-56
2022/04/23 01:25:44;;;;;;;4.03;1.88;;;;;;;14.87;45.94;93674.88;4158099;28;20057;-56
2022/04/23 01:27:46;;;;;;;5.03;1.80;;;;;;;14.93;45.90;93666.13;4158137;28;20086;-55
2022/04/23 01:29:47;;;;;;;10.27;1.95;;;;;;;14.94;45.85;93654.56;4158726;28;20061;-56
2022/04/23 01:31:49;;;;;;;10.75;1.90;;;;;;;15.00;45.75;93666.09;4160456;28;20049;-57
2022/04/23 01:33:51;;;;;;;5.53;1.70;;;;;;;15.00;45.34;93658.97;4150167;28;20058;-56
2022/04/23 01:35:53;;;;;;;5.57;1.75;;;;;;;15.08;44.95;93635.00;4161406;28;20094;-56
2022/04/23 01:37:54;;;;;;;6.78;1.88;;;;;;;15.20;45.29;93652.78;4159915;28;20470;-58
2022/04/23 01:39:56;;;;;;;11.10;2.10;;;;;;;15.26;45.28;93655.38;4159256;28;20148;-55
2022/04/23 01:41:58;;;;;;;8.23;1.92;;;;;;;15.31;44.36;93660.81;4161190;28;20135;-57
2022/04/23 01:43:59;;;;;;;10.50;2.20;;;;;;;15.37;44.06;93664.44;4161015;28;20068;-56
2022/04/23 01:46:01;;;;;;;4.25;1.73;;;;;;;15.44;44.04;93662.53;4161176;28;20056;-56
2022/04/23 01:48:04;;;;;;;8.20;2.05;;;;;;;15.46;44.07;93662.34;4160409;28;20148;-57
2022/04/23 01:50:07;;;;;;;8.27;2.10;;;;;;;15.51;44.38;93673.88;4161197;28;20092;-57
2022/04/23 01:52:09;;;;;;;;;;;;;;;15.47;44.51;93670.06;4161759;28;20163;-56
2022/04/23 01:54:11;;;;;;;5.25;1.88;;;;;;;15.42;44.38;93661.94;4158718;28;19998;-55
2022/04/23 01:56:13;;;;;;;5.45;1.80;;;;;;;15.44;44.53;93665.19;4160866;28;20049;-56
2022/04/23 01:58:15;;;;;;;8.32;2.35;;;;;;;15.44;44.50;93670.47;4160960;28;20099;-57
2022/04/23 02:00:17;;;;;;;10.07;2.20;;;;;;;15.41;44.76;93678.81;4160901;28;20126;-56
2022/04/23 02:02:18;;;;;;;6.85;1.95;;;;;;;14.89;46.44;93676.28;4161205;28;20049;-56
2022/04/23 02:04:20;;;;;;;6.93;1.98;;;;;;;14.42;47.45;93685.34;4160473;28;20478;-56
2022/04/23 02:06:22;;;;;;;6.45;2.10;;;;;;;14.09;48.55;93678.34;4160821;28;20123;-55
2022/04/23 02:08:24;;;;;;;3.65;1.98;;;;;;;13.95;49.18;93685.44;4159202;28;20049;-56
2022/04/23 02:10:25;;;;;;;4.15;2.10;;;;;;;14.00;49.03;93684.81;4160530;28;20080;-56
2022/04/23 02:12:27;;;;;;;7.60;2.70;;;;;;;14.02;48.85;93683.59;4161068;28;20084;-56
2022/04/23 02:14:29;;;;;;;6.10;2.10;;;;;;;14.01;49.28;93683.81;4160742;28;20107;-55
2022/04/23 02:16:31;;;;;;;9.82;2.20;;;;;;;14.03;49.11;93687.06;4159221;28;20331;-56
2022/04/23 02:18:33;;;;;;;4.78;1.80;;;;;;;14.14;49.32;93696.97;4160573;28;20053;-55
2022/04/23 02:20:35;;;;;;;7.75;2.40;;;;;;;14.20;49.45;93679.53;4160530;28;20133;-55
2022/04/23 02:22:38;;;;;;;6.47;2.17;;;;;;;14.14;49.08;93676.69;4160701;28;20564;-56
2022/04/23 02:24:39;;;;;;;6.38;2.65;;;;;;;14.06;49.04;93662.94;4158980;28;20123;-56
2022/04/23 02:26:42;;;;;;;6.93;1.90;;;;;;;14.16;49.28;93679.13;4160487;28;20115;-56
2022/04/23 02:28:44;;;;;;;4.32;2.00;;;;;;;14.27;48.83;93675.06;4160416;28;20050;-56
2022/04/23 02:30:45;;;;;;;4.97;2.25;;;;;;;14.36;48.92;93680.91;4160626;28;20085;-57
2022/04/23 02:32:47;;;;;;;9.00;2.50;;;;;;;14.33;49.50;93675.03;4160505;28;20068;-57
2022/04/23 02:34:49;;;;;;;6.20;2.50;;;;;;;14.05;49.91;93692.94;4160356;28;20482;-56
2022/04/23 02:36:51;;;;;;;4.20;2.13;;;;;;;13.97;49.82;93698.41;4160409;28;20493;-57
2022/04/23 02:38:53;;;;;;;6.47;2.58;;;;;;;13.84;50.61;93707.13;4158993;28;20072;-55
2022/04/23 02:40:54;;;;;;;5.38;2.30;;;;;;;13.68;50.49;93713.59;4155851;28;20057;-56
2022/04/23 02:42:57;;;;;;;7.10;2.35;;;;;;;13.63;50.96;93703.66;4159333;28;20049;-56
2022/04/23 02:45:01;;;;;;;4.07;2.13;;;;;;;13.68;51.07;93703.91;4158566;28;20284;-55
2022/04/23 02:47:04;;;;;;;;;;;;;;;13.78;50.82;93707.94;4159497;28;20067;-56
2022/04/23 02:49:06;;;;;;;6.43;2.50;;;;;;;13.73;50.45;93708.53;4159287;28;19925;-54
2022/04/23 02:51:07;;;;;;;8.90;2.50;;;;;;;13.56;50.90;93712.59;4160052;28;20071;-55
2022/04/23 02:53:09;;;;;;;4.53;2.10;;;;;;;13.66;51.29;93707.75;4157013;28;20490;-55
2022/04/23 02:55:11;;;;;;;5.60;2.25;;;;;;;13.73;51.48;93704.09;4160047;28;20053;-54
2022/04/23 02:57:13;;;;;;;5.53;2.20;;;;;;;13.84;51.28;93712.41;4159901;28;20065;-57
2022/04/23 02:59:15;;;;;;;6.90;2.25;;;;;;;13.90;50.92;93708.94;4160112;28;20111;-57
2022/04/23 03:01:17;;;;;;;5.43;2.22;;;;;;;13.91;51.21;93700.84;4159915;28;20625;-58
2022/04/23 03:03:19;;;;;;;6.90;2.60;;;;;;;13.97;50.89;93698.41;4159786;28;20061;-56
2022/04/23 03:05:22;;;;;;;7.95;2.70;;;;;;;14.00;51.07;93703.25;4159799;28;20050;-55
2022/04/23 03:07:23;;;;;;;7.95;2.25;;;;;;;14.05;50.34;93706.09;4159821;28;20049;-56
2022/04/23 03:09:25;;;;;;;6.68;2.03;;;;;;;14.06;50.83;93702.44;4158542;28;20057;-56
2022/04/23 03:11:27;;;;;;;5.85;2.63;;;;;;;14.04;50.62;93700.00;4159809;28;20108;-59
2022/04/23 03:13:29;;;;;;;6.93;2.30;;;;;;;14.03;50.81;93697.59;4157661;28;20053;-56
2022/04/23 03:15:31;;;;;;;3.97;2.20;;;;;;;14.03;50.82;93694.97;4160315;28;20094;-57
2022/04/23 03:17:32;;;;;;;10.63;3.03;;;;;;;14.04;50.62;93699.22;4159870;28;20468;-57
2022/04/23 03:19:34;;;;;;;5.75;2.53;;;;;;;14.02;50.91;93702.03;4159539;28;20058;-57
2022/04/23 03:21:36;;;;;;;5.10;2.25;;;;;;;14.02;50.85;93709.13;4159338;28;20053;-57
2022/04/23 03:23:38;;;;;;;7.28;2.30;;;;;;;13.99;51.00;93706.91;4158499;28;20076;-54
2022/04/23 03:25:40;;;;;;;7.72;2.30;;;;;;;13.89;51.29;93709.94;4159833;28;20057;-56
2022/04/23 03:27:42;;;;;;;5.85;2.60;;;;;;;13.80;51.41;93714.63;4159420;28;20057;-54
2022/04/23 03:29:44;;;;;;;7.25;2.53;;;;;;;13.77;51.27;93703.69;4159688;28;20042;-55
2022/04/23 03:31:48;;;;;;;7.30;2.50;;;;;;;13.72;51.62;93704.28;4159451;28;20429;-55
2022/04/23 03:33:50;;;;;;;4.50;2.40;;;;;;;13.65;51.86;93711.38;4159395;28;20318;-54
2022/04/23 03:35:52;;;;;;;8.43;3.00;;;;;;;13.66;52.01;93718.28;4159361;28;20061;-56
2022/04/23 03:37:55;;;;;;;6.93;2.42;;;;;;;13.72;51.54;93722.69;4157959;28;20053;-55
2022/04/23 03:39:58;;;;;;;7.50;2.40;;;;;;;13.79;51.44;93718.28;4159472;28;20123;-53
2022/04/23 03:42:03;;;;;;;5.75;2.97;;;;;;;13.83;51.92;93721.28;4154981;28;20057;-54
2022/04/23 03:44:04;;;;;;;6.35;2.50;;;;;;;13.88;51.61;93724.94;4175520;28;20056;-55
2022/04/23 03:46:06;;;;;;;6.78;4.03;;;;;;;13.91;51.36;93729.00;4176051;28;20133;-55
2022/04/23 03:48:08;;;;;;;6.25;2.30;;;;;;;13.97;50.95;93735.28;4155981;28;20064;-57
2022/04/23 03:50:10;;;;;;;8.02;3.20;;;;;;;13.99;50.84;93741.16;4143111;28;20065;-56
2022/04/23 03:52:12;;;;;;;4.28;2.17;;;;;;;14.02;51.06;93746.00;4142883;28;20111;-54
2022/04/23 03:54:14;;;;;;;4.20;2.15;;;;;;;13.98;50.88;93739.50;4141393;28;20054;-56
2022/04/23 03:56:16;;;;;;;6.65;2.72;;;;;;;14.00;50.90;93740.13;4142703;28;20054;-56
2022/04/23 03:58:18;;;;;;;6.93;2.47;;;;;;;14.00;51.25;93748.03;4141255;28;20140;-57
2022/04/23 04:00:21;;;;;;;6.57;2.80;;;;;;;14.00;51.24;93745.38;4143036;28;20127;-57
2022/04/23 04:02:23;;;;;;;6.00;2.50;;;;;;;14.03;51.40;93742.38;4146551;28;20045;-57
2022/04/23 04:04:26;;;;;;;5.15;2.78;;;;;;;14.00;51.76;93748.03;4158653;28;20286;-55
2022/04/23 04:06:28;;;;;;;4.90;2.53;;;;;;;13.93;51.74;93743.56;4158804;28;20065;-56
2022/04/23 04:08:30;;;;;;;4.50;2.80;;;;;;;13.91;51.62;93742.94;4157595;28;20054;-56
2022/04/23 04:10:31;;;;;;;5.65;2.90;;;;;;;13.90;51.73;93749.25;4158965;28;20107;-59
2022/04/23 04:12:33;;;;;;;5.45;2.67;;;;;;;13.93;52.04;93748.81;4158919;28;20084;-58
2022/04/23 04:14:35;;;;;;;7.93;2.85;;;;;;;13.95;51.88;93756.53;4159019;28;20547;-56
2022/04/23 04:16:38;;;;;;;5.77;3.00;;;;;;;13.92;51.45;93747.22;4159272;28;20060;-56
2022/04/23 04:18:41;;;;;;;13.45;3.70;;;;;;;13.85;52.00;93756.94;4158523;28;20336;-56
2022/04/23 04:20:48;;;;;;;10.80;3.45;;;;;;;13.80;51.98;93756.72;4158637;28;20080;-57
2022/04/23 04:22:50;;;;;;;7.35;2.70;;;;;;;13.82;51.90;93749.44;4157908;28;20057;-57
2022/04/23 04:24:52;;;;;;;8.63;2.80;;;;;;;13.87;51.84;93762.84;4158851;28;20563;-56
2022/04/23 04:26:54;;;;;;;7.57;2.70;;;;;;;13.85;52.61;93759.59;4159137;28;20802;-57
2022/04/23 04:28:56;;;;;;;11.48;3.03;;;;;;;13.64;52.88;93759.78;4157475;28;20049;-60
2022/04/23 04:33:19;;;;;;;9.73;2.67;;;;;;;13.52;53.42;93744.56;4158680;28;20130;-56
2022/04/23 04:35:21;;;;;;;14.23;3.05;;;;;;;13.56;53.06;93755.50;4158327;28;20065;-54
2022/04/23 04:37:23;;;;;;;5.30;2.30;;;;;;;13.64;52.52;93770.28;4158654;28;20061;-57
2022/04/23 04:39:25;;;;;;;5.47;3.20;;;;;;;13.77;52.60;93767.69;4157646;28;20486;-57
2022/04/23 04:41:29;;;;;;;8.38;3.10;;;;;;;13.89;52.42;93768.66;4161295;28;20108;-55
2022/04/23 04:43:31;;;;;;;7.97;2.92;;;;;;;13.93;52.15;93769.09;4154249;28;20064;-54
2022/04/23 04:45:33;;;;;;;7.65;2.55;;;;;;;13.97;52.31;93780.03;4158943;28;20147;-61
2022/04/23 04:47:34;;;;;;;5.47;2.50;;;;;;;14.03;51.71;93785.31;4157107;28;20104;-57
2022/04/23 04:49:37;;;;;;;7.28;2.70;;;;;;;14.05;51.91;93780.66;4141943;28;20549;-56
2022/04/23 04:51:38;;;;;;;7.38;2.78;;;;;;;14.16;51.73;93778.41;4142361;28;20102;-57
2022/04/23 04:53:40;;;;;;;9.00;3.67;;;;;;;14.20;51.91;93784.91;4140997;28;20061;-57
2022/04/23 04:55:42;;;;;;;10.65;3.45;;;;;;;14.13;51.20;93790.16;4142328;28;20050;-61
2022/04/23 04:57:44;;;;;;;4.85;2.95;;;;;;;14.02;51.50;93798.66;4141904;28;20062;-57
2022/04/23 04:59:45;;;;;;;11.38;3.25;;;;;;;13.95;51.36;93798.66;4156869;28;20501;-57
2022/04/23 05:01:48;;;;;;;4.72;2.85;;;;;;;14.03;51.54;93789.75;4158371;28;20068;-57
2022/04/23 05:03:51;;;;;;;14.82;3.20;;;;;;;14.06;51.07;93789.34;4157870;28;20053;-54
2022/04/23 05:05:53;;;;;;;9.10;3.40;;;;;;;14.00;51.24;93790.97;4158597;28;20140;-56
2022/04/23 05:07:55;;;;;;;11.88;2.63;;;;;;;13.93;51.84;93811.22;4160089;28;20049;-55
2022/04/23 05:09:57;;;;;;;9.18;3.00;;;;;;;13.95;51.33;93809.19;4161656;28;20421;-56
2022/04/23 05:11:58;;;;;;;8.10;3.03;;;;;;;13.89;51.37;93823.16;4161645;28;20112;-56
2022/04/23 05:14:00;;;;;;;6.05;2.92;;;;;;;13.70;52.35;93830.84;4161564;28;20123;-58
2022/04/23 05:16:02;;;;;;;8.75;3.28;;;;;;;13.17;53.74;93837.72;4161730;28;20045;-56
2022/04/23 05:18:04;;;;;;;11.77;3.97;;;;;;;12.84;54.95;93848.84;4160821;28;20568;-55
2022/04/23 05:20:06;;;;;;;7.32;4.10;;;;;;;12.85;55.32;93846.03;4161800;28;20054;-55
2022/04/23 05:22:08;;;;;;;11.82;3.60;;;;;;;12.80;55.59;93837.94;4161344;28;20105;-55
2022/04/23 05:24:10;;;;;;;8.65;3.53;;;;;;;12.86;55.64;93847.69;4160345;28;20049;-58
2022/04/23 05:26:12;;;;;;;9.48;3.47;;;;;;;12.95;55.77;93844.88;4161484;28;20057;-55
2022/04/23 05:28:13;;;;;;;10.98;3.33;;;;;;;13.20;55.58;93850.47;4161581;28;20115;-56
2022/04/23 05:30:15;;;;;;;13.00;4.82;;;;;;;13.40;54.97;93854.03;4161310;28;20045;-55
2022/04/23 05:32:17;;;;;;;13.32;4.13;;;;;;;13.61;54.09;93853.06;4161299;28;20061;-56
2022/04/23 05:34:18;;;;;;;7.80;3.63;;;;;;;13.83;53.60;93851.13;4161257;28;20472;-55
2022/04/23 05:36:20;;;;;;;9.90;4.40;;;;;;;14.01;53.27;93847.91;4161305;28;20137;-57
2022/04/23 05:38:22;;;;;;;7.40;3.33;;;;;;;14.18;52.13;93853.59;4160012;28;20046;-57
2022/04/23 05:40:24;;;;;;;11.07;3.97;;;;;;;14.31;52.10;93853.59;4161649;28;20061;-55
2022/04/23 05:42:25;;;;;;;13.48;3.95;;;;;;;14.47;52.06;93849.72;4160789;28;20124;-58
2022/04/23 05:44:27;;;;;;;9.45;3.85;;;;;;;14.63;51.77;93848.53;4162215;28;20057;-58
2022/04/23 05:46:29;;;;;;;8.27;3.35;;;;;;;14.74;51.40;93845.28;4161571;28;20065;-56
2022/04/23 05:48:31;;;;;;;10.52;4.00;;;;;;;14.95;51.47;93846.84;4160852;28;20620;-56
2022/04/23 05:50:33;;;;;;;8.70;4.10;;;;;;;15.17;50.94;93840.53;4161294;28;20049;-53
2022/04/23 05:52:37;;;;;;;12.85;3.90;;;;;;;15.31;50.90;93842.88;4160925;28;20053;-54
2022/04/23 05:54:39;;;;;;;8.73;3.83;;;;;;;15.49;50.89;93839.56;4159739;28;20171;-56
2022/04/23 05:56:41;;;;;;;7.18;3.38;;;;;;;15.71;50.47;93842.75;4161202;28;20193;-55
2022/04/23 05:58:43;;;;;;;9.38;3.20;;;;;;;15.90;50.24;93842.84;4160843;28;20557;-58
2022/04/23 06:00:45;;;;;;;6.88;3.47;;;;;;;16.02;50.22;93830.56;4161166;28;20042;-56
2022/04/23 06:02:47;;;;;;;6.78;4.80;;;;;;;16.13;50.08;93829.88;4160403;28;20437;-56
2022/04/23 06:04:49;;;;;;;11.10;4.13;;;;;;;16.24;50.13;93828.38;4160896;28;20049;-56
2022/04/23 06:06:51;;;;;;;5.22;3.60;;;;;;;16.33;50.28;93831.56;4160948;28;20065;-57
2022/04/23 06:08:53;;;;;;;8.10;3.90;;;;;;;16.32;50.72;93822.81;4159721;28;20149;-55
2022/04/23 06:10:54;;;;;;;9.02;3.53;;;;;;;16.09;51.68;93828.69;4160862;28;20115;-57
2022/04/23 06:12:56;;;;;;;11.32;3.83;;;;;;;15.93;52.54;93839.78;4160488;28;20061;-57
2022/04/23 06:14:58;;;;;;;10.05;3.70;;;;;;;15.94;52.39;93844.03;4160688;28;20053;-57
2022/04/23 06:17:00;;;;;;;8.43;3.38;;;;;;;16.06;52.12;93847.59;4159469;28;20068;-56
2022/04/23 06:19:02;;;;;;;5.32;3.28;;;;;;;16.17;51.72;93854.03;4160354;28;20172;-55
2022/04/23 06:21:03;;;;;;;8.80;3.65;;;;;;;16.30;50.35;93847.84;4154487;28;20041;-62
2022/04/23 06:23:05;;;;;;;6.22;2.97;;;;;;;16.37;49.88;93852.06;4143281;28;20485;-61
2022/04/23 06:25:08;;;;;;;12.38;4.03;;;;;;;16.42;49.55;93848.78;4144563;28;20061;-57
2022/04/23 06:27:09;;;;;;;9.55;3.72;;;;;;;16.48;49.49;93849.75;4144302;28;20494;-54
2022/04/23 06:29:12;;;;;;;5.55;2.80;;;;;;;16.45;50.15;93855.47;4144311;28;20057;-54
2022/04/23 06:31:14;;;;;;;5.55;2.97;;;;;;;16.17;51.54;93851.38;4143844;28;20561;-56
2022/04/23 06:33:16;;;;;;;5.55;2.80;;;;;;;15.94;52.72;93847.50;4143572;28;20128;-55
2022/04/23 06:35:18;;;;;;;6.28;3.05;;;;;;;15.89;52.94;93857.06;4145254;28;20066;-57
2022/04/23 06:37:20;;;;;;;9.13;3.70;;;;;;;15.92;52.52;93861.94;4160296;28;20425;-56
2022/04/23 06:39:22;;;;;;;5.63;2.53;;;;;;;15.40;52.75;93851.41;4158788;28;20066;-56
2022/04/23 06:41:24;;;;;;;5.20;2.85;;;;;;;15.39;53.34;93857.69;4160502;28;20057;-56
2022/04/23 06:43:26;;;;;;;5.72;3.08;;;;;;;15.33;53.37;93855.88;4159698;28;20084;-56
2022/04/23 06:45:28;;;;;;;4.90;2.88;;;;;;;15.44;54.55;93852.56;4158167;28;20057;-57
2022/04/23 06:47:29;;;;;;;6.78;3.08;;;;;;;15.09;55.33;93852.91;4160184;28;20108;-56
2022/04/23 06:49:31;;;;;;;10.55;3.75;;;;;;;15.30;55.43;93851.81;4159689;28;20061;-56
2022/04/23 06:51:34;;;;;;;7.35;3.53;;;;;;;15.61;54.73;93857.38;4160179;28;20052;-57
2022/04/23 06:53:36;;;;;;;7.53;2.78;;;;;;;15.30;55.69;93856.31;4157204;28;20056;-55
2022/04/23 06:55:38;;;;;;;9.63;3.30;;;;;;;15.53;55.43;93861.06;4160056;28;20053;-57
2022/04/23 06:57:44;;;;;;;6.50;3.33;;;;;;;15.50;55.27;93864.94;4159841;28;20058;-55
2022/04/23 06:59:45;;;;;;;6.60;3.25;;;;;;;15.66;55.05;93863.66;4159672;28;20136;-56
2022/04/23 07:01:47;;;;;;;8.02;3.08;;;;;;;15.69;54.95;93859.78;4159892;28;20053;-57
2022/04/23 07:03:49;;;;;;;7.05;3.22;;;;;;;15.81;54.17;93859.94;4159075;28;20061;-55
2022/04/23 07:05:51;;;;;;;7.68;3.33;;;;;;;15.95;53.98;93857.00;4159688;28;20080;-56
2022/04/23 07:08:00;;;;;;;7.70;3.45;;;;;;;15.97;53.92;93854.97;4158478;28;20052;-55
2022/04/23 07:10:03;;;;;;;13.88;4.82;;;;;;;16.10;54.10;93866.50;4160010;28;20383;-57
2022/04/23 07:12:05;;;;;;;4.80;2.92;;;;;;;16.23;53.80;93863.75;4159887;28;20049;-59
2022/04/23 07:14:07;;;;;;;7.20;2.67;;;;;;;16.01;54.23;93876.50;4159489;28;20057;-59
2022/04/23 07:16:11;;;;;;;8.85;3.08;;;;;;;16.07;54.30;93880.13;4159783;28;20300;-56
2022/04/23 07:18:13;;;;;;;4.10;2.80;;;;;;;16.01;54.04;93875.69;4159243;28;20049;-56
2022/04/23 07:20:18;;;;;;;5.88;2.65;;;;;;;15.99;54.12;93883.81;4159871;28;20580;-57
2022/04/23 07:22:20;;;;;;;3.35;2.53;;;;;;;15.85;54.27;93883.09;4143436;28;20080;-57
2022/04/23 07:24:22;;;;;;;5.97;2.67;;;;;;;15.80;54.82;93890.03;4141921;28;20054;-55
2022/04/23 07:26:24;;;;;;;5.32;2.65;;;;;;;15.81;54.73;93892.47;4143214;28;20088;-57
2022/04/23 07:28:26;;;;;;;9.25;2.92;;;;;;;15.90;54.75;93899.13;4142694;28;20058;-57
2022/04/23 07:30:28;;;;;;;4.53;2.35;;;;;;;15.74;54.91;93902.22;4143513;28;20058;-56
2022/04/23 07:32:30;;;;;;;8.68;2.70;;;;;;;15.71;54.68;93910.56;4143831;28;20056;-57
2022/04/23 07:39:13;;;;;;;4.75;2.40;;;;;;;16.06;54.13;93910.19;4158706;28;20053;-56
2022/04/23 07:41:14;;;;;;;5.75;2.45;;;;;;;16.36;53.47;93915.72;4159993;28;20045;-58
2022/04/23 07:43:17;;;;;;;5.07;2.20;;;;;;;16.65;52.84;93910.81;4159648;28;20075;-56
2022/04/23 07:45:19;;;;;;;11.87;2.83;;;;;;;16.59;52.86;93915.94;4154006;28;20158;-56
2022/04/23 07:47:22;;;;;;;7.70;3.33;;;;;;;16.46;52.84;93915.25;4160695;28;20279;-58
2022/04/23 07:49:23;;;;;;;9.35;2.67;;;;;;;16.35;52.90;93928.13;4143042;28;20402;-56
2022/04/23 07:51:28;;;;;;;9.70;2.80;;;;;;;16.31;53.45;93924.28;4142914;28;20057;-55
2022/04/23 07:53:36;;;;;;;12.27;3.50;;;;;;;15.90;55.14;93925.53;4141546;28;20050;-56
2022/04/23 07:55:38;;;;;;;9.05;3.25;;;;;;;15.32;57.01;93936.88;4142842;28;20049;-56
2022/04/23 07:57:40;;;;;;;6.78;3.22;;;;;;;15.15;58.48;93952.31;4142546;28;20418;-55
2022/04/23 07:59:42;;;;;;;7.25;3.00;;;;;;;14.46;61.01;93947.44;4143168;28;20069;-57
2022/04/23 08:01:44;;;;;;;5.15;2.92;;;;;;;14.29;61.20;93944.38;4141882;28;20046;-56
2022/04/23 08:03:46;;;;;;;6.78;2.78;;;;;;;14.40;61.89;93949.06;4158302;28;20057;-59
2022/04/23 08:05:48;;;;;;;7.38;3.30;;;;;;;14.44;61.37;93944.19;4158174;28;20457;-58
2022/04/23 08:07:50;;;;;;;7.88;3.95;;;;;;;14.90;60.67;93943.41;4157660;28;20501;-55
2022/04/23 08:09:52;;;;;;;8.88;3.25;;;;;;;15.25;59.45;93946.63;4159527;28;20185;-58
2022/04/23 08:11:54;;;;;;;4.10;2.25;;;;;;;15.50;58.28;93941.47;4159152;28;20490;-59
2022/04/23 08:13:57;;;;;;;8.55;3.47;;;;;;;15.45;59.10;93946.59;4159285;28;20045;-59
2022/04/23 08:15:59;;;;;;;6.00;3.63;;;;;;;15.33;59.52;93958.78;4159061;28;20064;-58
2022/04/23 08:18:01;;;;;;;6.20;3.42;;;;;;;14.83;60.79;93961.88;4158769;28;20061;-57
2022/04/23 08:20:04;;;;;;;4.07;2.22;;;;;;;14.85;60.48;93961.69;4158981;28;20458;-56
2022/04/23 08:22:06;;;;;;;6.47;2.50;;;;;;;14.77;60.08;93973.22;4158614;28;20354;-56
2022/04/23 08:24:08;;;;;;;4.13;2.22;;;;;;;14.70;60.64;93952.16;4157873;28;20065;-56
2022/04/23 08:26:10;;;;;;;4.45;2.40;;;;;;;14.86;60.23;93947.47;4158706;28;20398;-54
2022/04/23 08:30:36;;;;;;;6.20;2.30;;;;;;;14.47;60.23;93957.75;4158199;28;20060;-56
2022/04/23 08:32:38;;;;;;;5.38;2.08;;;;;;;14.68;59.53;93953.38;4159487;28;20517;-56
2022/04/23 08:34:40;;;;;;;5.03;2.80;;;;;;;14.76;59.09;93947.91;4158582;28;20235;-56
2022/04/23 08:36:41;;;;;;;2.83;1.90;;;;;;;14.86;58.33;93956.22;4158762;28;20049;-57
2022/04/23 08:38:43;;;;;;;3.55;2.00;;;;;;;14.52;58.55;93962.47;4156936;28;20497;-56
2022/04/23 08:40:45;;;;;;;6.60;3.22;;;;;;;14.61;58.19;93950.72;4157500;28;20049;-56
2022/04/23 08:42:47;;;;;;;6.22;2.15;;;;;;;14.82;57.86;93957.63;4159185;28;20052;-57
2022/04/23 08:44:52;;;;;;;6.18;2.10;;;;;;;14.80;57.57;93972.00;4159017;28;20529;-56
2022/04/23 08:46:55;;;;;;;3.60;1.77;;;;;;;14.23;58.56;93968.88;4157210;28;20046;-55
2022/04/23 08:49:08;;;;;;;4.05;1.70;;;;;;;14.42;58.92;93970.75;4156248;28;20708;-56
2022/04/23 08:51:12;;;;;;;6.50;2.53;;;;;;;14.67;58.30;93965.75;4158844;28;20056;-55
2022/04/23 08:53:17;;;;;;;5.50;1.90;;;;;;;14.61;57.50;93968.38;4156266;28;20061;-55
2022/04/23 08:55:30;;;;;;;4.72;1.65;;;;;;;14.38;57.31;93972.16;4158445;28;20497;-56
2022/04/23 08:57:32;;;;;;;4.82;2.00;;;;;;;14.42;57.63;93967.31;4157227;28;20510;-55
2022/04/23 08:59:35;;;;;;;5.10;2.72;;;;;;;14.34;56.83;93974.38;4157488;28;20280;-54
2022/04/23 09:01:38;;;;;;;4.43;2.90;;;;;;;14.46;57.18;93976.44;4158254;28;20089;-56
2022/04/23 09:03:40;;;;;;;4.22;2.05;;;;;;;14.73;56.59;93970.22;4157995;28;20259;-57
2022/04/23 09:05:43;;;;;;;8.98;2.30;;;;;;;14.98;56.19;93968.78;4158463;28;20486;-56
2022/04/23 09:07:53;;;;;;;4.55;2.15;;;;;;;15.28;55.03;93958.59;4157864;28;20056;-58
2022/04/23 09:09:56;;;;;;;5.55;1.90;;;;;;;15.52;54.38;93962.41;4158064;28;20479;-56
2022/04/23 09:11:59;;;;;;;4.53;1.90;;;;;;;15.65;54.10;93954.44;4158249;28;20520;-56
2022/04/23 09:14:02;;;;;;;5.18;2.08;;;;;;;15.86;53.59;93958.66;4157378;28;20537;-60
2022/04/23 09:25:36;;;;;;;3.70;1.77;;;;;;;16.57;51.29;93954.22;4158248;28;20050;-56
2022/04/23 09:27:38;;;;;;;2.97;1.40;;;;;;;16.54;51.32;93965.19;4158688;28;20053;-59
2022/04/23 09:29:42;;;;;;;5.90;1.33;;;;;;;16.60;51.31;93964.34;4158421;28;20065;-57
2022/04/23 09:31:43;;;;;;;;;;;;;;;16.67;51.30;93966.94;4158328;28;20042;-58
2022/04/23 09:33:49;;;;;;;7.45;3.78;;;;;;;16.67;51.15;93951.91;4158172;28;19925;-57
2022/04/23 09:35:52;;;;;;;4.30;1.70;;;;;;;16.48;52.29;93958.16;4157992;28;20528;-54
2022/04/23 09:38:11;;;;;;;3.85;1.42;;;;;;;16.45;53.23;93950.63;4156691;28;20512;-56
2022/04/23 09:40:27;;;;;;;5.38;1.40;;;;;;;16.46;53.82;93960.19;4157846;28;20105;-59
2022/04/23 09:42:29;;;;;;;2.88;1.40;;;;;;;16.49;54.59;93947.34;4157941;28;20342;-58
2022/04/23 09:44:31;;;;;;;3.25;1.63;;;;;;;16.62;54.88;93933.22;4157579;28;20059;-57
2022/04/23 09:46:43;;;;;;;4.25;1.70;;;;;;;16.79;53.71;93931.66;4157703;28;20153;-57
2022/04/23 09:49:04;;;;;;;6.85;1.65;;;;;;;17.02;53.03;93926.84;4158125;28;20077;-56
2022/04/23 09:51:24;;;;;;;3.40;1.80;;;;;;;17.06;53.53;93926.19;4159202;28;20064;-57
2022/04/23 09:53:27;;;;;;;2.95;1.50;;;;;;;17.36;52.95;93922.84;4159717;28;20112;-56
2022/04/23 09:55:30;;;;;;;5.45;1.90;;;;;;;17.68;52.99;93923.50;4161309;28;20422;-58
2022/04/23 09:57:32;;;;;;;3.30;1.52;;;;;;;17.85;52.12;93920.25;4159874;28;20045;-58